sensor_id;sensor_type;location;lat;lon;timestamp;P1;P2;P0
47741;PMS5003;33504;52.066;6.096;2024-01-30T00:00:04;32;31;
47741;PMS5003;33504;52.066;6.096;2024-01-30T00:02:32;33;32;
47741;PMS5003;33504;52.066;6.096;2024-01-30T00:05:00;32;32;
47741;PMS5003;33504;52.066;6.096;2024-01-30T00:07:27;39;39;
47741;PMS5003;33504;52.066;6.096;2024-01-30T00:09:55;33;32;
47741;PMS5003;33504;52.066;6.096;2024-01-30T00:12:22;36;35;
47741;PMS5003;33504;52.066;6.096;2024-01-30T00:14:49;32;32;
47741;PMS5003;33504;52.066;6.096;2024-01-30T00:17:17;36;34;
47741;PMS5003;33504;52.066;6.096;2024-01-30T00:19:44;34;34;
47741;PMS5003;33504;52.066;6.096;2024-01-30T00:22:11;38;37;
47741;PMS5003;33504;52.066;6.096;2024-01-30T00:24:39;34;33;
47741;PMS5003;33504;52.066;6.096;2024-01-30T00:27:06;37;36;
47741;PMS5003;33504;52.066;6.096;2024-01-30T00:29:34;34;33;
47741;PMS5003;33504;52.066;6.096;2024-01-30T00:32:01;33;31;
47741;PMS5003;33504;52.066;6.096;2024-01-30T00:34:28;33;32;
47741;PMS5003;33504;52.066;6.096;2024-01-30T00:36:55;35;34;
47741;PMS5003;33504;52.066;6.096;2024-01-30T00:39:22;37;36;
47741;PMS5003;33504;52.066;6.096;2024-01-30T00:41:50;33;30;
47741;PMS5003;33504;52.066;6.096;2024-01-30T00:44:17;39;38;
47741;PMS5003;33504;52.066;6.096;2024-01-30T00:46:44;43;42;
47741;PMS5003;33504;52.066;6.096;2024-01-30T00:49:12;34;32;
47741;PMS5003;33504;52.066;6.096;2024-01-30T00:51:39;38;37;
47741;PMS5003;33504;52.066;6.096;2024-01-30T00:54:06;37;35;
47741;PMS5003;33504;52.066;6.096;2024-01-30T00:56:33;35;35;
47741;PMS5003;33504;52.066;6.096;2024-01-30T00:59:00;34;32;
47741;PMS5003;33504;52.066;6.096;2024-01-30T01:01:27;30;30;
47741;PMS5003;33504;52.066;6.096;2024-01-30T01:03:55;39;37;
47741;PMS5003;33504;52.066;6.096;2024-01-30T01:06:22;35;34;
47741;PMS5003;33504;52.066;6.096;2024-01-30T01:08:50;32;32;
47741;PMS5003;33504;52.066;6.096;2024-01-30T01:11:17;38;36;
47741;PMS5003;33504;52.066;6.096;2024-01-30T01:13:44;37;35;
47741;PMS5003;33504;52.066;6.096;2024-01-30T01:16:11;42;39;
47741;PMS5003;33504;52.066;6.096;2024-01-30T01:18:38;35;34;
47741;PMS5003;33504;52.066;6.096;2024-01-30T01:21:05;34;34;
47741;PMS5003;33504;52.066;6.096;2024-01-30T01:23:32;35;35;
47741;PMS5003;33504;52.066;6.096;2024-01-30T01:26:00;36;35;
47741;PMS5003;33504;52.066;6.096;2024-01-30T01:28:26;37;34;
47741;PMS5003;33504;52.066;6.096;2024-01-30T01:30:54;42;40;
47741;PMS5003;33504;52.066;6.096;2024-01-30T01:33:21;38;37;
47741;PMS5003;33504;52.066;6.096;2024-01-30T01:35:47;36;34;
47741;PMS5003;33504;52.066;6.096;2024-01-30T01:38:14;35;34;
47741;PMS5003;33504;52.066;6.096;2024-01-30T01:40:42;32;31;
47741;PMS5003;33504;52.066;6.096;2024-01-30T01:43:09;37;35;
47741;PMS5003;33504;52.066;6.096;2024-01-30T01:45:36;36;35;
47741;PMS5003;33504;52.066;6.096;2024-01-30T01:48:03;33;33;
47741;PMS5003;33504;52.066;6.096;2024-01-30T01:50:31;34;34;
47741;PMS5003;33504;52.066;6.096;2024-01-30T01:52:58;35;33;
47741;PMS5003;33504;52.066;6.096;2024-01-30T01:55:25;31;31;
47741;PMS5003;33504;52.066;6.096;2024-01-30T01:57:53;37;36;
47741;PMS5003;33504;52.066;6.096;2024-01-30T02:00:20;35;33;
47741;PMS5003;33504;52.066;6.096;2024-01-30T02:02:47;40;38;
47741;PMS5003;33504;52.066;6.096;2024-01-30T02:05:16;38;36;
47741;PMS5003;33504;52.066;6.096;2024-01-30T02:07:43;41;41;
47741;PMS5003;33504;52.066;6.096;2024-01-30T02:10:10;39;36;
47741;PMS5003;33504;52.066;6.096;2024-01-30T02:12:37;41;38;
47741;PMS5003;33504;52.066;6.096;2024-01-30T02:15:05;39;34;
47741;PMS5003;33504;52.066;6.096;2024-01-30T02:17:32;40;38;
47741;PMS5003;33504;52.066;6.096;2024-01-30T02:19:59;37;34;
47741;PMS5003;33504;52.066;6.096;2024-01-30T02:22:26;38;36;
47741;PMS5003;33504;52.066;6.096;2024-01-30T02:24:53;30;28;
47741;PMS5003;33504;52.066;6.096;2024-01-30T02:27:21;35;34;
47741;PMS5003;33504;52.066;6.096;2024-01-30T02:29:48;39;36;
47741;PMS5003;33504;52.066;6.096;2024-01-30T02:32:15;35;31;
47741;PMS5003;33504;52.066;6.096;2024-01-30T02:34:42;33;31;
47741;PMS5003;33504;52.066;6.096;2024-01-30T02:37:10;38;35;
47741;PMS5003;33504;52.066;6.096;2024-01-30T02:39:37;35;32;
47741;PMS5003;33504;52.066;6.096;2024-01-30T02:42:05;30;29;
47741;PMS5003;33504;52.066;6.096;2024-01-30T02:44:32;35;34;
47741;PMS5003;33504;52.066;6.096;2024-01-30T02:46:59;35;33;
47741;PMS5003;33504;52.066;6.096;2024-01-30T02:49:26;37;36;
47741;PMS5003;33504;52.066;6.096;2024-01-30T02:51:54;41;37;
47741;PMS5003;33504;52.066;6.096;2024-01-30T02:54:21;31;30;
47741;PMS5003;33504;52.066;6.096;2024-01-30T02:56:49;33;32;
47741;PMS5003;33504;52.066;6.096;2024-01-30T02:59:16;34;32;
47741;PMS5003;33504;52.066;6.096;2024-01-30T03:01:43;35;33;
47741;PMS5003;33504;52.066;6.096;2024-01-30T03:04:10;32;31;
47741;PMS5003;33504;52.066;6.096;2024-01-30T03:06:37;34;33;
47741;PMS5003;33504;52.066;6.096;2024-01-30T03:09:04;34;33;
47741;PMS5003;33504;52.066;6.096;2024-01-30T03:11:31;32;30;
47741;PMS5003;33504;52.066;6.096;2024-01-30T03:13:58;34;33;
47741;PMS5003;33504;52.066;6.096;2024-01-30T03:16:25;33;29;
47741;PMS5003;33504;52.066;6.096;2024-01-30T03:18:52;31;31;
47741;PMS5003;33504;52.066;6.096;2024-01-30T03:21:19;30;28;
47741;PMS5003;33504;52.066;6.096;2024-01-30T03:23:46;35;33;
47741;PMS5003;33504;52.066;6.096;2024-01-30T03:26:14;34;31;
47741;PMS5003;33504;52.066;6.096;2024-01-30T03:28:41;31;31;
47741;PMS5003;33504;52.066;6.096;2024-01-30T03:31:08;34;32;
47741;PMS5003;33504;52.066;6.096;2024-01-30T03:33:36;34;33;
47741;PMS5003;33504;52.066;6.096;2024-01-30T03:36:04;38;36;
47741;PMS5003;33504;52.066;6.096;2024-01-30T03:38:31;30;30;
47741;PMS5003;33504;52.066;6.096;2024-01-30T03:40:58;30;29;
47741;PMS5003;33504;52.066;6.096;2024-01-30T03:43:25;38;33;
47741;PMS5003;33504;52.066;6.096;2024-01-30T03:45:52;36;33;
47741;PMS5003;33504;52.066;6.096;2024-01-30T03:48:20;32;31;
47741;PMS5003;33504;52.066;6.096;2024-01-30T03:50:48;34;32;
47741;PMS5003;33504;52.066;6.096;2024-01-30T03:53:15;36;34;
47741;PMS5003;33504;52.066;6.096;2024-01-30T03:55:42;35;35;
47741;PMS5003;33504;52.066;6.096;2024-01-30T03:58:09;34;31;
47741;PMS5003;33504;52.066;6.096;2024-01-30T04:00:37;29;28;
47741;PMS5003;33504;52.066;6.096;2024-01-30T04:03:04;37;33;
47741;PMS5003;33504;52.066;6.096;2024-01-30T04:05:31;34;34;
47741;PMS5003;33504;52.066;6.096;2024-01-30T04:07:59;36;35;
47741;PMS5003;33504;52.066;6.096;2024-01-30T04:10:26;38;33;
47741;PMS5003;33504;52.066;6.096;2024-01-30T04:12:53;31;29;
47741;PMS5003;33504;52.066;6.096;2024-01-30T04:15:21;34;33;
47741;PMS5003;33504;52.066;6.096;2024-01-30T04:17:47;28;28;
47741;PMS5003;33504;52.066;6.096;2024-01-30T04:20:14;29;27;
47741;PMS5003;33504;52.066;6.096;2024-01-30T04:22:43;37;34;
47741;PMS5003;33504;52.066;6.096;2024-01-30T04:25:10;28;26;
47741;PMS5003;33504;52.066;6.096;2024-01-30T04:27:37;35;32;
47741;PMS5003;33504;52.066;6.096;2024-01-30T04:30:05;29;28;
47741;PMS5003;33504;52.066;6.096;2024-01-30T04:32:34;31;30;
47741;PMS5003;33504;52.066;6.096;2024-01-30T04:35:02;34;32;
47741;PMS5003;33504;52.066;6.096;2024-01-30T04:37:30;31;30;
47741;PMS5003;33504;52.066;6.096;2024-01-30T04:39:57;36;33;
47741;PMS5003;33504;52.066;6.096;2024-01-30T04:42:24;32;32;
47741;PMS5003;33504;52.066;6.096;2024-01-30T04:44:51;31;30;
47741;PMS5003;33504;52.066;6.096;2024-01-30T04:47:18;27;25;
47741;PMS5003;33504;52.066;6.096;2024-01-30T04:49:46;28;27;
47741;PMS5003;33504;52.066;6.096;2024-01-30T04:52:13;31;27;
47741;PMS5003;33504;52.066;6.096;2024-01-30T04:54:40;30;29;
47741;PMS5003;33504;52.066;6.096;2024-01-30T04:57:07;28;26;
47741;PMS5003;33504;52.066;6.096;2024-01-30T04:59:35;33;29;
47741;PMS5003;33504;52.066;6.096;2024-01-30T05:02:02;34;32;
47741;PMS5003;33504;52.066;6.096;2024-01-30T05:04:29;31;31;
47741;PMS5003;33504;52.066;6.096;2024-01-30T05:06:57;30;27;
47741;PMS5003;33504;52.066;6.096;2024-01-30T05:09:24;31;29;
47741;PMS5003;33504;52.066;6.096;2024-01-30T05:11:51;26;24;
47741;PMS5003;33504;52.066;6.096;2024-01-30T05:14:17;28;25;
47741;PMS5003;33504;52.066;6.096;2024-01-30T05:16:44;25;24;
47741;PMS5003;33504;52.066;6.096;2024-01-30T05:19:12;27;24;
47741;PMS5003;33504;52.066;6.096;2024-01-30T05:21:39;26;26;
47741;PMS5003;33504;52.066;6.096;2024-01-30T05:24:07;28;27;
47741;PMS5003;33504;52.066;6.096;2024-01-30T05:26:34;33;30;
47741;PMS5003;33504;52.066;6.096;2024-01-30T05:29:01;30;28;
47741;PMS5003;33504;52.066;6.096;2024-01-30T05:31:28;25;22;
47741;PMS5003;33504;52.066;6.096;2024-01-30T05:33:55;26;24;
47741;PMS5003;33504;52.066;6.096;2024-01-30T05:36:22;25;24;
47741;PMS5003;33504;52.066;6.096;2024-01-30T05:38:50;25;24;
47741;PMS5003;33504;52.066;6.096;2024-01-30T05:41:17;24;23;
47741;PMS5003;33504;52.066;6.096;2024-01-30T05:43:44;26;26;
47741;PMS5003;33504;52.066;6.096;2024-01-30T05:46:11;27;26;
47741;PMS5003;33504;52.066;6.096;2024-01-30T05:48:38;25;23;
47741;PMS5003;33504;52.066;6.096;2024-01-30T05:51:06;29;29;
47741;PMS5003;33504;52.066;6.096;2024-01-30T05:53:33;25;24;
47741;PMS5003;33504;52.066;6.096;2024-01-30T05:56:01;25;25;
47741;PMS5003;33504;52.066;6.096;2024-01-30T05:58:29;27;26;
47741;PMS5003;33504;52.066;6.096;2024-01-30T06:00:56;22;22;
47741;PMS5003;33504;52.066;6.096;2024-01-30T06:03:24;27;23;
47741;PMS5003;33504;52.066;6.096;2024-01-30T06:05:50;26;25;
47741;PMS5003;33504;52.066;6.096;2024-01-30T06:08:18;26;25;
47741;PMS5003;33504;52.066;6.096;2024-01-30T06:10:45;28;27;
47741;PMS5003;33504;52.066;6.096;2024-01-30T06:13:13;25;25;
47741;PMS5003;33504;52.066;6.096;2024-01-30T06:15:40;27;27;
47741;PMS5003;33504;52.066;6.096;2024-01-30T06:18:07;25;24;
47741;PMS5003;33504;52.066;6.096;2024-01-30T06:20:34;28;25;
47741;PMS5003;33504;52.066;6.096;2024-01-30T06:23:02;28;27;
47741;PMS5003;33504;52.066;6.096;2024-01-30T06:25:30;30;28;
47741;PMS5003;33504;52.066;6.096;2024-01-30T06:27:56;28;28;
47741;PMS5003;33504;52.066;6.096;2024-01-30T06:30:24;29;28;
47741;PMS5003;33504;52.066;6.096;2024-01-30T06:32:51;29;28;
47741;PMS5003;33504;52.066;6.096;2024-01-30T06:35:18;33;32;
47741;PMS5003;33504;52.066;6.096;2024-01-30T06:37:45;24;23;
47741;PMS5003;33504;52.066;6.096;2024-01-30T06:40:12;21;20;
47741;PMS5003;33504;52.066;6.096;2024-01-30T06:42:39;21;20;
47741;PMS5003;33504;52.066;6.096;2024-01-30T06:45:06;24;23;
47741;PMS5003;33504;52.066;6.096;2024-01-30T06:47:34;28;24;
47741;PMS5003;33504;52.066;6.096;2024-01-30T06:50:01;30;28;
47741;PMS5003;33504;52.066;6.096;2024-01-30T06:52:28;25;24;
47741;PMS5003;33504;52.066;6.096;2024-01-30T06:54:55;29;27;
47741;PMS5003;33504;52.066;6.096;2024-01-30T06:57:22;21;20;
47741;PMS5003;33504;52.066;6.096;2024-01-30T06:59:49;23;22;
47741;PMS5003;33504;52.066;6.096;2024-01-30T07:02:16;29;28;
47741;PMS5003;33504;52.066;6.096;2024-01-30T07:04:43;24;24;
47741;PMS5003;33504;52.066;6.096;2024-01-30T07:07:10;26;24;
47741;PMS5003;33504;52.066;6.096;2024-01-30T07:09:37;26;22;
47741;PMS5003;33504;52.066;6.096;2024-01-30T07:12:05;24;22;
47741;PMS5003;33504;52.066;6.096;2024-01-30T07:14:32;24;24;
47741;PMS5003;33504;52.066;6.096;2024-01-30T07:17:00;24;24;
47741;PMS5003;33504;52.066;6.096;2024-01-30T07:19:27;20;20;
47741;PMS5003;33504;52.066;6.096;2024-01-30T07:21:54;21;20;
47741;PMS5003;33504;52.066;6.096;2024-01-30T07:24:21;22;21;
47741;PMS5003;33504;52.066;6.096;2024-01-30T07:26:49;24;23;
47741;PMS5003;33504;52.066;6.096;2024-01-30T07:29:16;25;23;
47741;PMS5003;33504;52.066;6.096;2024-01-30T07:31:43;22;22;
47741;PMS5003;33504;52.066;6.096;2024-01-30T07:34:10;25;22;
47741;PMS5003;33504;52.066;6.096;2024-01-30T07:36:38;29;27;
47741;PMS5003;33504;52.066;6.096;2024-01-30T07:39:05;24;22;
47741;PMS5003;33504;52.066;6.096;2024-01-30T07:41:32;27;25;
47741;PMS5003;33504;52.066;6.096;2024-01-30T07:43:59;28;26;
47741;PMS5003;33504;52.066;6.096;2024-01-30T07:46:26;26;26;
47741;PMS5003;33504;52.066;6.096;2024-01-30T07:48:53;24;22;
47741;PMS5003;33504;52.066;6.096;2024-01-30T07:51:20;29;28;
47741;PMS5003;33504;52.066;6.096;2024-01-30T07:53:48;28;25;
47741;PMS5003;33504;52.066;6.096;2024-01-30T07:56:15;23;21;
47741;PMS5003;33504;52.066;6.096;2024-01-30T07:58:42;27;25;
47741;PMS5003;33504;52.066;6.096;2024-01-30T08:01:10;25;25;
47741;PMS5003;33504;52.066;6.096;2024-01-30T08:03:37;22;22;
47741;PMS5003;33504;52.066;6.096;2024-01-30T08:06:05;28;26;
47741;PMS5003;33504;52.066;6.096;2024-01-30T08:08:32;23;22;
47741;PMS5003;33504;52.066;6.096;2024-01-30T08:10:59;23;23;
47741;PMS5003;33504;52.066;6.096;2024-01-30T08:13:26;23;22;
47741;PMS5003;33504;52.066;6.096;2024-01-30T08:15:53;27;26;
47741;PMS5003;33504;52.066;6.096;2024-01-30T08:18:21;22;22;
47741;PMS5003;33504;52.066;6.096;2024-01-30T08:20:48;23;23;
47741;PMS5003;33504;52.066;6.096;2024-01-30T08:23:15;27;26;
47741;PMS5003;33504;52.066;6.096;2024-01-30T08:25:43;28;26;
47741;PMS5003;33504;52.066;6.096;2024-01-30T08:28:10;25;23;
47741;PMS5003;33504;52.066;6.096;2024-01-30T08:30:37;28;27;
47741;PMS5003;33504;52.066;6.096;2024-01-30T08:33:05;26;25;
47741;PMS5003;33504;52.066;6.096;2024-01-30T08:35:32;26;24;
47741;PMS5003;33504;52.066;6.096;2024-01-30T08:37:59;21;20;
47741;PMS5003;33504;52.066;6.096;2024-01-30T08:40:26;28;25;
47741;PMS5003;33504;52.066;6.096;2024-01-30T08:42:53;26;24;
47741;PMS5003;33504;52.066;6.096;2024-01-30T08:45:20;24;22;
47741;PMS5003;33504;52.066;6.096;2024-01-30T08:47:48;24;24;
47741;PMS5003;33504;52.066;6.096;2024-01-30T08:50:14;23;23;
47741;PMS5003;33504;52.066;6.096;2024-01-30T08:52:42;26;25;
47741;PMS5003;33504;52.066;6.096;2024-01-30T08:55:10;21;21;
47741;PMS5003;33504;52.066;6.096;2024-01-30T08:57:37;32;29;
47741;PMS5003;33504;52.066;6.096;2024-01-30T09:00:05;24;23;
47741;PMS5003;33504;52.066;6.096;2024-01-30T09:02:33;21;21;
47741;PMS5003;33504;52.066;6.096;2024-01-30T09:05:00;24;23;
47741;PMS5003;33504;52.066;6.096;2024-01-30T09:07:27;26;24;
47741;PMS5003;33504;52.066;6.096;2024-01-30T09:09:54;27;25;
47741;PMS5003;33504;52.066;6.096;2024-01-30T09:12:21;21;20;
47741;PMS5003;33504;52.066;6.096;2024-01-30T09:14:49;30;29;
47741;PMS5003;33504;52.066;6.096;2024-01-30T09:17:16;28;27;
47741;PMS5003;33504;52.066;6.096;2024-01-30T09:19:43;27;26;
47741;PMS5003;33504;52.066;6.096;2024-01-30T09:22:12;28;27;
47741;PMS5003;33504;52.066;6.096;2024-01-30T09:24:39;25;24;
47741;PMS5003;33504;52.066;6.096;2024-01-30T09:27:07;21;21;
47741;PMS5003;33504;52.066;6.096;2024-01-30T09:29:34;27;25;
47741;PMS5003;33504;52.066;6.096;2024-01-30T09:32:01;26;23;
47741;PMS5003;33504;52.066;6.096;2024-01-30T09:34:28;24;22;
47741;PMS5003;33504;52.066;6.096;2024-01-30T09:36:55;24;23;
47741;PMS5003;33504;52.066;6.096;2024-01-30T09:39:23;24;23;
47741;PMS5003;33504;52.066;6.096;2024-01-30T09:41:53;26;25;
47741;PMS5003;33504;52.066;6.096;2024-01-30T09:44:28;27;26;
47741;PMS5003;33504;52.066;6.096;2024-01-30T09:46:55;19;18;
47741;PMS5003;33504;52.066;6.096;2024-01-30T09:49:22;22;22;
47741;PMS5003;33504;52.066;6.096;2024-01-30T09:51:49;23;21;
47741;PMS5003;33504;52.066;6.096;2024-01-30T09:54:18;25;25;
47741;PMS5003;33504;52.066;6.096;2024-01-30T09:56:46;23;22;
47741;PMS5003;33504;52.066;6.096;2024-01-30T09:59:13;24;22;
47741;PMS5003;33504;52.066;6.096;2024-01-30T10:01:41;28;26;
47741;PMS5003;33504;52.066;6.096;2024-01-30T10:04:09;21;20;
47741;PMS5003;33504;52.066;6.096;2024-01-30T10:06:37;26;25;
47741;PMS5003;33504;52.066;6.096;2024-01-30T10:09:05;26;25;
47741;PMS5003;33504;52.066;6.096;2024-01-30T10:11:32;20;19;
47741;PMS5003;33504;52.066;6.096;2024-01-30T10:13:59;25;22;
47741;PMS5003;33504;52.066;6.096;2024-01-30T10:16:26;26;26;
47741;PMS5003;33504;52.066;6.096;2024-01-30T10:18:53;23;22;
47741;PMS5003;33504;52.066;6.096;2024-01-30T10:21:20;23;23;
47741;PMS5003;33504;52.066;6.096;2024-01-30T10:23:47;27;25;
47741;PMS5003;33504;52.066;6.096;2024-01-30T10:26:16;25;24;
47741;PMS5003;33504;52.066;6.096;2024-01-30T10:28:43;24;22;
47741;PMS5003;33504;52.066;6.096;2024-01-30T10:31:10;25;24;
47741;PMS5003;33504;52.066;6.096;2024-01-30T10:33:37;25;25;
47741;PMS5003;33504;52.066;6.096;2024-01-30T10:36:04;31;29;
47741;PMS5003;33504;52.066;6.096;2024-01-30T10:38:32;22;22;
47741;PMS5003;33504;52.066;6.096;2024-01-30T10:41:00;24;23;
47741;PMS5003;33504;52.066;6.096;2024-01-30T10:43:30;25;24;
47741;PMS5003;33504;52.066;6.096;2024-01-30T10:46:01;25;23;
47741;PMS5003;33504;52.066;6.096;2024-01-30T10:48:36;27;25;
47741;PMS5003;33504;52.066;6.096;2024-01-30T10:51:09;22;19;
47741;PMS5003;33504;52.066;6.096;2024-01-30T10:53:36;25;23;
47741;PMS5003;33504;52.066;6.096;2024-01-30T10:56:05;23;22;
47741;PMS5003;33504;52.066;6.096;2024-01-30T10:58:32;23;21;
47741;PMS5003;33504;52.066;6.096;2024-01-30T11:00:59;25;22;
47741;PMS5003;33504;52.066;6.096;2024-01-30T11:03:27;25;23;
47741;PMS5003;33504;52.066;6.096;2024-01-30T11:05:58;24;23;
47741;PMS5003;33504;52.066;6.096;2024-01-30T11:08:26;22;21;
47741;PMS5003;33504;52.066;6.096;2024-01-30T11:10:55;20;19;
47741;PMS5003;33504;52.066;6.096;2024-01-30T11:13:26;23;21;
47741;PMS5003;33504;52.066;6.096;2024-01-30T11:15:54;25;25;
47741;PMS5003;33504;52.066;6.096;2024-01-30T11:18:23;22;22;
47741;PMS5003;33504;52.066;6.096;2024-01-30T11:20:50;23;22;
47741;PMS5003;33504;52.066;6.096;2024-01-30T11:23:17;26;25;
47741;PMS5003;33504;52.066;6.096;2024-01-30T11:25:44;25;23;
47741;PMS5003;33504;52.066;6.096;2024-01-30T11:28:13;24;24;
47741;PMS5003;33504;52.066;6.096;2024-01-30T11:30:41;24;24;
47741;PMS5003;33504;52.066;6.096;2024-01-30T11:33:09;24;22;
47741;PMS5003;33504;52.066;6.096;2024-01-30T11:35:38;24;22;
47741;PMS5003;33504;52.066;6.096;2024-01-30T11:38:07;24;24;
47741;PMS5003;33504;52.066;6.096;2024-01-30T11:40:36;23;22;
47741;PMS5003;33504;52.066;6.096;2024-01-30T11:43:05;24;23;
47741;PMS5003;33504;52.066;6.096;2024-01-30T11:45:33;27;25;
47741;PMS5003;33504;52.066;6.096;2024-01-30T11:48:01;27;25;
47741;PMS5003;33504;52.066;6.096;2024-01-30T11:50:29;23;22;
47741;PMS5003;33504;52.066;6.096;2024-01-30T11:52:57;26;25;
47741;PMS5003;33504;52.066;6.096;2024-01-30T11:55:25;31;29;
47741;PMS5003;33504;52.066;6.096;2024-01-30T11:57:54;21;21;
47741;PMS5003;33504;52.066;6.096;2024-01-30T12:00:22;23;23;
47741;PMS5003;33504;52.066;6.096;2024-01-30T12:02:49;28;25;
47741;PMS5003;33504;52.066;6.096;2024-01-30T12:05:18;22;21;
47741;PMS5003;33504;52.066;6.096;2024-01-30T12:07:46;24;22;
47741;PMS5003;33504;52.066;6.096;2024-01-30T12:10:13;23;23;
47741;PMS5003;33504;52.066;6.096;2024-01-30T12:12:41;26;25;
47741;PMS5003;33504;52.066;6.096;2024-01-30T12:15:10;22;19;
47741;PMS5003;33504;52.066;6.096;2024-01-30T12:17:37;20;19;
47741;PMS5003;33504;52.066;6.096;2024-01-30T12:20:05;21;20;
47741;PMS5003;33504;52.066;6.096;2024-01-30T12:22:33;19;17;
47741;PMS5003;33504;52.066;6.096;2024-01-30T12:25:04;19;18;
47741;PMS5003;33504;52.066;6.096;2024-01-30T12:27:31;17;17;
47741;PMS5003;33504;52.066;6.096;2024-01-30T12:29:58;21;21;
47741;PMS5003;33504;52.066;6.096;2024-01-30T12:32:25;22;21;
47741;PMS5003;33504;52.066;6.096;2024-01-30T12:34:54;20;19;
47741;PMS5003;33504;52.066;6.096;2024-01-30T12:37:22;27;26;
47741;PMS5003;33504;52.066;6.096;2024-01-30T12:39:49;23;23;
47741;PMS5003;33504;52.066;6.096;2024-01-30T12:42:16;19;18;
47741;PMS5003;33504;52.066;6.096;2024-01-30T12:44:43;19;17;
47741;PMS5003;33504;52.066;6.096;2024-01-30T12:47:10;21;20;
47741;PMS5003;33504;52.066;6.096;2024-01-30T12:49:38;17;17;
47741;PMS5003;33504;52.066;6.096;2024-01-30T12:52:05;24;23;
47741;PMS5003;33504;52.066;6.096;2024-01-30T12:54:31;14;14;
47741;PMS5003;33504;52.066;6.096;2024-01-30T12:56:58;17;16;
47741;PMS5003;33504;52.066;6.096;2024-01-30T12:59:25;13;11;
47741;PMS5003;33504;52.066;6.096;2024-01-30T13:01:52;15;14;
47741;PMS5003;33504;52.066;6.096;2024-01-30T13:04:19;10;10;
47741;PMS5003;33504;52.066;6.096;2024-01-30T13:06:46;9;9;
47741;PMS5003;33504;52.066;6.096;2024-01-30T13:09:13;11;10;
47741;PMS5003;33504;52.066;6.096;2024-01-30T13:11:40;8;8;
47741;PMS5003;33504;52.066;6.096;2024-01-30T13:14:07;6;6;
47741;PMS5003;33504;52.066;6.096;2024-01-30T13:16:34;6;5;
47741;PMS5003;33504;52.066;6.096;2024-01-30T13:19:01;3;3;
47741;PMS5003;33504;52.066;6.096;2024-01-30T13:21:29;4;4;
47741;PMS5003;33504;52.066;6.096;2024-01-30T13:23:56;1;1;
47741;PMS5003;33504;52.066;6.096;2024-01-30T13:26:24;4;4;
47741;PMS5003;33504;52.066;6.096;2024-01-30T13:28:51;3;2;
47741;PMS5003;33504;52.066;6.096;2024-01-30T13:31:18;3;3;
47741;PMS5003;33504;52.066;6.096;2024-01-30T13:33:46;2;2;
47741;PMS5003;33504;52.066;6.096;2024-01-30T13:36:12;2;1;
47741;PMS5003;33504;52.066;6.096;2024-01-30T13:38:40;1;1;
47741;PMS5003;33504;52.066;6.096;2024-01-30T13:41:07;2;2;
47741;PMS5003;33504;52.066;6.096;2024-01-30T13:43:34;2;2;
47741;PMS5003;33504;52.066;6.096;2024-01-30T13:46:02;2;2;
47741;PMS5003;33504;52.066;6.096;2024-01-30T13:48:30;1;1;
47741;PMS5003;33504;52.066;6.096;2024-01-30T13:50:58;2;2;
47741;PMS5003;33504;52.066;6.096;2024-01-30T13:53:25;2;2;
47741;PMS5003;33504;52.066;6.096;2024-01-30T13:55:51;2;2;
47741;PMS5003;33504;52.066;6.096;2024-01-30T13:58:18;2;2;
47741;PMS5003;33504;52.066;6.096;2024-01-30T14:00:45;1;1;
47741;PMS5003;33504;52.066;6.096;2024-01-30T14:03:12;5;5;
47741;PMS5003;33504;52.066;6.096;2024-01-30T14:05:39;5;5;
47741;PMS5003;33504;52.066;6.096;2024-01-30T14:08:06;5;5;
47741;PMS5003;33504;52.066;6.096;2024-01-30T14:10:34;6;5;
47741;PMS5003;33504;52.066;6.096;2024-01-30T14:13:01;7;6;
47741;PMS5003;33504;52.066;6.096;2024-01-30T14:15:27;7;6;
47741;PMS5003;33504;52.066;6.096;2024-01-30T14:17:54;7;6;
47741;PMS5003;33504;52.066;6.096;2024-01-30T14:20:22;6;5;
47741;PMS5003;33504;52.066;6.096;2024-01-30T14:22:49;9;9;
47741;PMS5003;33504;52.066;6.096;2024-01-30T14:25:15;10;8;
47741;PMS5003;33504;52.066;6.096;2024-01-30T14:27:43;8;8;
47741;PMS5003;33504;52.066;6.096;2024-01-30T14:30:10;8;6;
47741;PMS5003;33504;52.066;6.096;2024-01-30T14:32:37;12;11;
47741;PMS5003;33504;52.066;6.096;2024-01-30T14:35:05;7;7;
47741;PMS5003;33504;52.066;6.096;2024-01-30T14:37:32;9;8;
47741;PMS5003;33504;52.066;6.096;2024-01-30T14:39:59;8;8;
47741;PMS5003;33504;52.066;6.096;2024-01-30T14:42:26;8;8;
47741;PMS5003;33504;52.066;6.096;2024-01-30T14:44:53;8;8;
47741;PMS5003;33504;52.066;6.096;2024-01-30T14:47:20;8;8;
47741;PMS5003;33504;52.066;6.096;2024-01-30T14:49:46;9;8;
47741;PMS5003;33504;52.066;6.096;2024-01-30T14:52:13;10;10;
47741;PMS5003;33504;52.066;6.096;2024-01-30T14:54:40;7;7;
47741;PMS5003;33504;52.066;6.096;2024-01-30T14:57:07;7;7;
47741;PMS5003;33504;52.066;6.096;2024-01-30T14:59:35;10;9;
47741;PMS5003;33504;52.066;6.096;2024-01-30T15:02:03;21;21;
47741;PMS5003;33504;52.066;6.096;2024-01-30T15:04:30;8;8;
47741;PMS5003;33504;52.066;6.096;2024-01-30T15:06:57;10;8;
47741;PMS5003;33504;52.066;6.096;2024-01-30T15:09:24;6;6;
47741;PMS5003;33504;52.066;6.096;2024-01-30T15:11:50;11;10;
47741;PMS5003;33504;52.066;6.096;2024-01-30T15:14:17;8;8;
47741;PMS5003;33504;52.066;6.096;2024-01-30T15:16:44;9;9;
47741;PMS5003;33504;52.066;6.096;2024-01-30T15:19:12;8;8;
47741;PMS5003;33504;52.066;6.096;2024-01-30T15:21:39;9;9;
47741;PMS5003;33504;52.066;6.096;2024-01-30T15:24:06;10;10;
47741;PMS5003;33504;52.066;6.096;2024-01-30T15:26:33;9;8;
47741;PMS5003;33504;52.066;6.096;2024-01-30T15:29:01;7;6;
47741;PMS5003;33504;52.066;6.096;2024-01-30T15:31:28;8;8;
47741;PMS5003;33504;52.066;6.096;2024-01-30T15:33:55;9;8;
47741;PMS5003;33504;52.066;6.096;2024-01-30T15:36:21;6;5;
47741;PMS5003;33504;52.066;6.096;2024-01-30T15:38:48;7;7;
47741;PMS5003;33504;52.066;6.096;2024-01-30T15:41:15;5;5;
47741;PMS5003;33504;52.066;6.096;2024-01-30T15:43:42;9;8;
47741;PMS5003;33504;52.066;6.096;2024-01-30T15:46:09;6;6;
47741;PMS5003;33504;52.066;6.096;2024-01-30T15:48:36;7;6;
47741;PMS5003;33504;52.066;6.096;2024-01-30T15:51:03;6;6;
47741;PMS5003;33504;52.066;6.096;2024-01-30T15:53:31;9;7;
47741;PMS5003;33504;52.066;6.096;2024-01-30T15:55:58;6;6;
47741;PMS5003;33504;52.066;6.096;2024-01-30T15:58:24;8;7;
47741;PMS5003;33504;52.066;6.096;2024-01-30T16:00:52;8;7;
47741;PMS5003;33504;52.066;6.096;2024-01-30T16:03:19;7;6;
47741;PMS5003;33504;52.066;6.096;2024-01-30T16:05:46;4;3;
47741;PMS5003;33504;52.066;6.096;2024-01-30T16:08:13;4;4;
47741;PMS5003;33504;52.066;6.096;2024-01-30T16:10:41;4;4;
47741;PMS5003;33504;52.066;6.096;2024-01-30T16:13:10;6;5;
47741;PMS5003;33504;52.066;6.096;2024-01-30T16:15:37;6;5;
47741;PMS5003;33504;52.066;6.096;2024-01-30T16:18:05;9;8;
47741;PMS5003;33504;52.066;6.096;2024-01-30T16:20:32;12;11;
47741;PMS5003;33504;52.066;6.096;2024-01-30T16:22:59;7;7;